METAR Data

Data at: 2327 UTC 26 Feb 2020

METAR for:KBHB (Bar Harbor/Hancock C, ME, US)
Text:KBHB 262256Z AUTO 00000KT 10SM OVC080 04/01 A3005 RMK AO2 SLP179 T00440011
Temperature: 4.4°C ( 40°F)
Dewpoint: 1.1°C ( 34°F) [RH = 79%]
Pressure (altimeter):30.05 inches Hg (1017.7 mb) [Sea level pressure: 1017.9 mb]
Winds:calm
Visibility:10 or more sm (16+ km)
Ceiling:8000 feet AGL
Clouds: overcast cloud deck at 8000 feet AGL
QC Flag:automated observation with no human augmentation